createdAt,value
2023-04-08T00:02:23.255Z,99864.19
2023-04-08T00:04:51.534Z,99863.44
2023-04-08T00:07:20.420Z,99864.34
2023-04-08T00:09:50.628Z,99864.34
2023-04-08T00:12:18.915Z,99864.34
2023-04-08T00:14:46.871Z,99869.75
2023-04-08T00:17:15.203Z,99870.88
2023-04-08T00:19:43.726Z,99874.03
2023-04-08T00:22:12.269Z,99876.28
2023-04-08T00:24:41.818Z,99869.50
2023-04-08T00:27:09.850Z,99874.13
2023-04-08T00:29:40.700Z,99872.53
2023-04-08T00:32:09.133Z,99876.44
2023-04-08T00:34:37.773Z,99882.13
2023-04-08T00:37:06.828Z,99879.75
2023-04-08T00:39:35.012Z,99887.81
2023-04-08T00:42:03.394Z,99885.19
2023-04-08T00:44:31.375Z,99880.56
2023-04-08T00:46:59.830Z,99875.22
2023-04-08T00:49:28.309Z,99884.44
2023-04-08T00:51:56.388Z,99887.75
2023-04-08T00:54:25.297Z,99881.38
2023-04-08T00:56:53.346Z,99886.38
2023-04-08T00:59:21.475Z,99882.66
2023-04-08T01:02:23.507Z,99895.31
2023-04-08T01:05:09.515Z,99894.38
2023-04-08T01:07:50.624Z,99897.16
2023-04-08T01:10:33.927Z,99895.16
2023-04-08T01:13:10.661Z,99893.47
2023-04-08T01:15:43.725Z,99893.41
2023-04-08T01:18:15.917Z,99892.38
2023-04-08T01:20:44.448Z,99897.69
2023-04-08T01:23:49.796Z,99897.56
2023-04-08T01:26:25.785Z,99900.41
2023-04-08T01:28:58.569Z,99897.84
2023-04-08T01:31:27.847Z,99900.41
2023-04-08T01:33:58.009Z,99906.88
2023-04-08T01:36:26.689Z,99906.16
2023-04-08T01:38:54.967Z,99908.09
2023-04-08T01:41:23.340Z,99901.78
2023-04-08T01:43:54.552Z,99900.38
2023-04-08T01:46:23.085Z,99897.63
2023-04-08T01:48:51.972Z,99899.41
2023-04-08T01:51:21.509Z,99907.97
2023-04-08T01:53:50.556Z,99903.78
2023-04-08T01:56:23.373Z,99901.16
2023-04-08T01:58:54.709Z,99905.88
2023-04-08T02:01:26.375Z,99915.34
2023-04-08T02:03:57.612Z,99911.97
2023-04-08T02:06:29.442Z,99905.88
2023-04-08T02:08:57.674Z,99913.13
2023-04-08T02:11:26.194Z,99907.03
2023-04-08T02:13:54.931Z,99912.59
2023-04-08T02:16:58.833Z,99914.28
2023-04-08T02:19:36.686Z,99917.91
2023-04-08T02:22:23.585Z,99926.91
2023-04-08T02:24:52.693Z,99919.84
2023-04-08T02:27:22.957Z,99918.03
2023-04-08T02:29:54.002Z,99912.88
2023-04-08T02:32:26.447Z,99910.41
2023-04-08T02:34:56.853Z,99919.84
2023-04-08T02:37:25.433Z,99910.88
2023-04-08T02:39:53.557Z,99917.06
2023-04-08T02:42:21.839Z,99914.44
2023-04-08T02:44:50.046Z,99915.50
2023-04-08T02:47:17.991Z,99925.19
2023-04-08T02:49:46.565Z,99922.50
2023-04-08T02:52:14.863Z,99918.44
2023-04-08T02:54:42.922Z,99918.53
2023-04-08T02:57:11.041Z,99922.97
2023-04-08T02:59:39.210Z,99917.59
2023-04-08T03:02:07.199Z,99920.28
2023-04-08T03:04:36.578Z,99915.31
2023-04-08T03:07:05.692Z,99913.66
2023-04-08T03:09:34.756Z,99905.31
2023-04-08T03:12:03.101Z,99909.78
2023-04-08T03:14:31.107Z,99918.41
2023-04-08T03:16:59.318Z,99914.88
2023-04-08T03:19:29.201Z,99920.03
2023-04-08T03:21:57.872Z,99919.31
2023-04-08T03:24:25.859Z,99922.03
2023-04-08T03:26:54.102Z,99917.72
2023-04-08T03:29:22.238Z,99930.13
2023-04-08T03:31:50.476Z,99925.69
2023-04-08T03:34:19.915Z,99932.66
2023-04-08T03:36:47.851Z,99940.44
2023-04-08T03:39:15.837Z,99943.13
2023-04-08T03:41:44.221Z,99942.00
2023-04-08T03:44:12.325Z,99941.84
2023-04-08T03:46:40.683Z,99949.69
2023-04-08T03:49:08.828Z,99947.94
2023-04-08T03:51:36.831Z,99946.75
2023-04-08T03:54:04.973Z,99954.69
2023-04-08T03:56:33.184Z,99960.00
2023-04-08T03:59:01.278Z,99963.41
2023-04-08T04:01:30.466Z,99969.44
2023-04-08T04:04:00.347Z,99965.66
2023-04-08T04:06:28.592Z,99967.69
2023-04-08T04:08:56.516Z,99963.00
2023-04-08T04:11:24.630Z,99954.72
2023-04-08T04:13:52.702Z,99966.44
2023-04-08T04:16:21.253Z,99968.00
2023-04-08T04:18:50.148Z,99973.94
2023-04-08T04:21:18.666Z,99970.25
2023-04-08T04:23:46.981Z,99972.53
2023-04-08T04:26:15.788Z,99981.97
2023-04-08T04:28:43.933Z,99978.19
2023-04-08T04:31:26.736Z,99992.59
2023-04-08T04:33:55.684Z,99989.72
2023-04-08T04:36:23.760Z,99990.41
2023-04-08T04:38:52.272Z,99990.34
2023-04-08T04:41:24.050Z,99995.50
2023-04-08T04:43:52.143Z,99996.19
2023-04-08T04:46:20.869Z,100001.06
2023-04-08T04:48:49.454Z,100006.13
2023-04-08T04:51:17.809Z,100012.94
2023-04-08T04:53:45.961Z,100006.88
2023-04-08T04:56:14.102Z,100014.44
2023-04-08T04:58:42.495Z,100015.72
2023-04-08T05:01:10.865Z,100018.78
2023-04-08T05:03:39.204Z,100021.94
2023-04-08T05:06:07.265Z,100026.19
2023-04-08T05:08:35.573Z,100022.97
2023-04-08T05:11:03.849Z,100027.88
2023-04-08T05:13:33.503Z,100037.44
2023-04-08T05:16:02.219Z,100028.31
2023-04-08T05:18:30.531Z,100041.22
2023-04-08T05:21:00.039Z,100039.00
2023-04-08T05:23:28.510Z,100046.13
2023-04-08T05:25:57.156Z,100036.66
2023-04-08T05:28:25.620Z,100044.75
2023-04-08T05:30:54.941Z,100049.31
2023-04-08T05:33:23.407Z,100056.34
2023-04-08T05:35:51.430Z,100056.19
2023-04-08T05:38:20.000Z,100057.16
2023-04-08T05:40:48.493Z,100063.78
2023-04-08T05:43:16.609Z,100058.75
2023-04-08T05:45:44.810Z,100058.94
2023-04-08T05:48:13.023Z,100059.94
2023-04-08T05:50:41.177Z,100063.50
2023-04-08T05:53:11.116Z,100061.38
2023-04-08T05:55:40.255Z,100060.22
2023-04-08T05:58:08.315Z,100061.66
2023-04-08T06:00:36.720Z,100068.50
2023-04-08T06:03:05.237Z,100068.00
2023-04-08T06:05:33.611Z,100069.03
2023-04-08T06:08:01.957Z,100063.50
2023-04-08T06:10:30.275Z,100057.28
2023-04-08T06:12:58.468Z,100062.59
2023-04-08T06:15:27.340Z,100062.94
2023-04-08T06:17:55.669Z,100066.09
2023-04-08T06:20:23.902Z,100055.22
2023-04-08T06:22:52.434Z,100061.28
2023-04-08T06:25:20.884Z,100057.66
2023-04-08T06:27:48.954Z,100052.47
2023-04-08T06:30:17.681Z,100060.06
2023-04-08T06:32:47.577Z,100055.31
2023-04-08T06:35:16.328Z,100056.56
2023-04-08T06:37:44.711Z,100051.81
2023-04-08T06:40:13.464Z,100051.59
2023-04-08T06:42:43.448Z,100043.53
2023-04-08T06:45:29.933Z,100041.63
2023-04-08T06:47:58.011Z,100043.94
2023-04-08T06:50:26.154Z,100038.22
2023-04-08T06:52:55.714Z,100041.59
2023-04-08T06:55:23.703Z,100029.41
2023-04-08T06:57:52.115Z,100031.22
2023-04-08T07:00:20.917Z,100032.06
2023-04-08T07:02:49.845Z,100025.50
2023-04-08T07:05:17.998Z,100011.56
2023-04-08T07:07:46.548Z,100007.84
2023-04-08T07:10:14.737Z,100001.63
2023-04-08T07:12:43.080Z,99996.81
2023-04-08T07:15:13.123Z,99998.00
2023-04-08T07:17:41.592Z,99987.63
2023-04-08T07:20:10.826Z,99986.06
2023-04-08T07:22:39.027Z,99987.69
2023-04-08T07:25:07.605Z,99982.13
2023-04-08T07:27:36.836Z,99979.94
2023-04-08T07:30:06.235Z,99973.34
2023-04-08T07:32:35.062Z,99968.72
2023-04-08T07:35:03.987Z,99966.59
2023-04-08T07:37:33.210Z,99970.56
2023-04-08T07:40:01.373Z,99959.06
2023-04-08T07:42:29.693Z,99966.69
2023-04-08T07:44:58.727Z,99964.16
2023-04-08T07:47:27.413Z,99946.38
2023-04-08T07:49:55.740Z,99954.53
2023-04-08T07:52:24.714Z,99944.97
2023-04-08T07:54:52.848Z,99948.78
2023-04-08T07:57:21.438Z,99954.56
2023-04-08T07:59:49.931Z,99944.47
2023-04-08T08:02:18.253Z,99955.41
2023-04-08T08:04:46.943Z,99955.59
2023-04-08T08:07:18.206Z,99940.22
2023-04-08T08:09:46.220Z,99949.47
2023-04-08T08:12:14.336Z,99954.16
2023-04-08T08:14:42.846Z,99957.91
2023-04-08T08:17:11.096Z,99962.72
2023-04-08T08:19:39.182Z,99962.94
2023-04-08T08:22:07.592Z,99957.53
2023-04-08T08:24:35.717Z,99956.38
2023-04-08T08:27:06.168Z,99956.53
2023-04-08T08:29:34.726Z,99961.31
2023-04-08T08:32:03.894Z,99962.41
2023-04-08T08:34:32.226Z,99958.34
2023-04-08T08:37:00.675Z,99959.84
2023-04-08T08:39:28.706Z,99951.81
2023-04-08T08:41:57.159Z,99957.78
2023-04-08T08:44:26.024Z,99958.31
2023-04-08T08:46:54.352Z,99962.03
2023-04-08T08:49:24.073Z,99967.44
2023-04-08T08:51:55.311Z,99974.09
2023-04-08T08:54:23.371Z,99963.81
2023-04-08T08:56:51.562Z,99963.53
2023-04-08T08:59:20.028Z,99962.25
2023-04-08T09:01:48.161Z,99963.44
2023-04-08T09:04:20.118Z,99968.63
2023-04-08T09:07:10.332Z,99970.56
2023-04-08T09:09:58.916Z,99963.47
2023-04-08T09:12:31.678Z,99973.28
2023-04-08T09:15:08.514Z,99968.78
2023-04-08T09:17:41.713Z,99966.44
2023-04-08T09:20:15.364Z,99955.50
2023-04-08T09:23:03.421Z,99969.44
2023-04-08T09:25:33.670Z,99966.22
2023-04-08T09:28:03.077Z,99974.09
2023-04-08T09:30:33.185Z,99972.22
2023-04-08T09:33:01.885Z,99967.25
2023-04-08T09:35:30.119Z,99970.22
2023-04-08T09:38:00.499Z,99959.13
2023-04-08T09:40:35.071Z,99962.75
2023-04-08T09:43:08.467Z,99962.13
2023-04-08T09:45:41.388Z,99964.78
2023-04-08T09:48:25.048Z,99968.91
2023-04-08T09:50:57.589Z,99975.69
2023-04-08T09:53:34.942Z,99969.53
2023-04-08T09:56:10.677Z,99983.16
2023-04-08T09:59:04.874Z,99971.78
2023-04-08T10:01:40.894Z,99971.34
2023-04-08T10:04:15.518Z,99969.50
2023-04-08T10:06:43.921Z,99964.97
2023-04-08T10:09:12.951Z,99970.94
2023-04-08T10:11:41.672Z,99972.13
2023-04-08T10:14:11.624Z,99963.75
2023-04-08T10:16:40.626Z,99962.06
2023-04-08T10:19:41.914Z,99966.19
2023-04-08T10:22:49.425Z,99966.53
2023-04-08T10:25:17.783Z,99951.00
2023-04-08T10:27:46.628Z,99956.06
2023-04-08T10:30:32.099Z,99950.41
2023-04-08T10:33:01.199Z,99939.66
2023-04-08T10:35:35.658Z,99930.75
2023-04-08T10:38:04.318Z,99943.06
2023-04-08T10:40:42.918Z,99944.25
2023-04-08T10:43:12.895Z,99936.19
2023-04-08T10:45:42.671Z,99932.16
2023-04-08T10:48:14.381Z,99925.75
2023-04-08T10:50:42.531Z,99933.81
2023-04-08T10:53:11.571Z,99927.88
2023-04-08T10:55:40.471Z,99919.56
2023-04-08T10:58:10.704Z,99915.53
2023-04-08T11:00:41.173Z,99912.00
2023-04-08T11:03:14.390Z,99912.94
2023-04-08T11:05:44.034Z,99913.75
2023-04-08T11:08:12.149Z,99909.00
2023-04-08T11:10:40.635Z,99915.22
2023-04-08T11:13:12.974Z,99902.44
2023-04-08T11:15:43.011Z,99908.00
2023-04-08T11:18:12.263Z,99904.66
2023-04-08T11:20:40.670Z,99902.97
2023-04-08T11:23:15.713Z,99897.50
2023-04-08T11:25:47.126Z,99900.81
2023-04-08T11:28:15.856Z,99895.94
2023-04-08T11:30:45.106Z,99899.78
2023-04-08T11:33:14.549Z,99903.81
2023-04-08T11:35:44.433Z,99898.41
2023-04-08T11:38:13.141Z,99898.13
2023-04-08T11:40:53.036Z,99897.47
2023-04-08T11:43:21.714Z,99898.44
2023-04-08T11:45:50.492Z,99897.53
2023-04-08T11:48:18.813Z,99893.28
2023-04-08T11:50:47.124Z,99891.31
2023-04-08T11:53:41.554Z,99899.09
2023-04-08T11:56:24.373Z,99897.38
2023-04-08T11:58:53.556Z,99901.22
2023-04-08T12:01:22.138Z,99904.88
2023-04-08T12:03:58.844Z,99903.78
2023-04-08T12:06:29.068Z,99887.19
2023-04-08T12:08:58.279Z,99898.66
2023-04-08T12:11:26.565Z,99898.09
2023-04-08T12:13:55.068Z,99891.19
2023-04-08T12:16:23.469Z,99875.31
2023-04-08T12:18:52.098Z,99868.28
2023-04-08T12:21:20.450Z,99872.13
2023-04-08T12:23:49.128Z,99880.16
2023-04-08T12:26:18.333Z,99881.41
2023-04-08T12:28:47.332Z,99865.00
2023-04-08T12:31:15.740Z,99859.19
2023-04-08T12:33:44.205Z,99860.38
2023-04-08T12:36:13.708Z,99863.78
2023-04-08T12:38:42.297Z,99856.13
2023-04-08T12:41:10.774Z,99861.22
2023-04-08T12:43:39.558Z,99852.81
2023-04-08T12:46:08.066Z,99850.53
2023-04-08T12:48:37.125Z,99853.66
2023-04-08T12:51:06.631Z,99855.88
2023-04-08T12:53:34.933Z,99841.63
2023-04-08T12:56:03.612Z,99855.75
2023-04-08T12:58:32.090Z,99853.72
2023-04-08T13:01:00.956Z,99868.84
2023-04-08T13:03:32.612Z,99860.16
2023-04-08T13:06:01.505Z,99866.75
2023-04-08T13:08:30.070Z,99860.06
2023-04-08T13:10:58.545Z,99869.63
2023-04-08T13:13:27.033Z,99870.44
2023-04-08T13:15:55.454Z,99867.16
2023-04-08T13:18:23.842Z,99863.28
2023-04-08T13:20:52.347Z,99858.50
2023-04-08T13:23:22.585Z,99855.19
2023-04-08T13:25:51.887Z,99865.94
2023-04-08T13:28:20.643Z,99859.06
2023-04-08T13:30:49.125Z,99847.31
2023-04-08T13:33:17.956Z,99855.34
2023-04-08T13:35:46.900Z,99864.91
2023-04-08T13:38:15.689Z,99863.38
2023-04-08T13:40:46.634Z,99864.69
2023-04-08T13:43:16.283Z,99864.28
2023-04-08T13:45:44.856Z,99867.16
2023-04-08T13:48:13.932Z,99872.66
2023-04-08T13:50:42.782Z,99874.69
2023-04-08T13:53:11.101Z,99877.38
2023-04-08T13:55:39.333Z,99879.31
2023-04-08T13:58:17.264Z,99870.75
2023-04-08T14:00:52.304Z,99876.69
2023-04-08T14:03:20.938Z,99885.03
2023-04-08T14:05:51.171Z,99892.78
2023-04-08T14:08:25.935Z,99883.34
2023-04-08T14:10:57.997Z,99883.72
2023-04-08T14:13:27.078Z,99887.06
2023-04-08T14:15:58.493Z,99879.09
2023-04-08T14:18:26.727Z,99872.47
2023-04-08T14:20:56.458Z,99876.59
2023-04-08T14:23:24.913Z,99888.25
2023-04-08T14:25:53.335Z,99888.19
2023-04-08T14:28:21.749Z,99889.84
2023-04-08T14:30:50.253Z,99892.22
2023-04-08T14:33:19.402Z,99885.50
2023-04-08T14:35:48.081Z,99891.84
2023-04-08T14:38:18.100Z,99896.34
2023-04-08T14:40:46.563Z,99902.44
2023-04-08T14:43:14.924Z,99903.28
2023-04-08T14:45:46.196Z,99898.78
2023-04-08T14:48:14.504Z,99903.78
2023-04-08T14:50:43.161Z,99905.09
2023-04-08T14:53:11.960Z,99903.25
2023-04-08T14:55:40.207Z,99906.38
2023-04-08T14:58:08.449Z,99911.50
2023-04-08T15:00:37.930Z,99912.34
2023-04-08T15:03:06.964Z,99911.72
2023-04-08T15:05:36.757Z,99916.53
2023-04-08T15:08:06.456Z,99912.63
2023-04-08T15:10:34.700Z,99912.09
2023-04-08T15:13:04.058Z,99913.13
2023-04-08T15:15:32.473Z,99912.72
2023-04-08T15:18:00.874Z,99914.97
2023-04-08T15:20:29.482Z,99916.91
2023-04-08T15:22:58.337Z,99917.53
2023-04-08T15:25:26.361Z,99915.84
2023-04-08T15:27:54.780Z,99914.41
2023-04-08T15:30:24.669Z,99915.53
2023-04-08T15:32:54.068Z,99916.66
2023-04-08T15:35:23.443Z,99927.34
2023-04-08T15:37:51.916Z,99930.16
2023-04-08T15:40:20.180Z,99918.75
2023-04-08T15:42:48.484Z,99919.03
2023-04-08T15:45:17.229Z,99927.66
2023-04-08T15:47:45.578Z,99928.19
2023-04-08T15:50:15.368Z,99925.28
2023-04-08T15:52:44.106Z,99924.56
2023-04-08T15:55:14.890Z,99919.66
2023-04-08T15:57:44.402Z,99925.72
2023-04-08T16:00:14.950Z,99929.38
2023-04-08T16:02:46.894Z,99930.94
2023-04-08T16:05:15.993Z,99934.19
2023-04-08T16:07:44.019Z,99930.38
2023-04-08T16:10:12.287Z,99927.59
2023-04-08T16:12:41.204Z,99934.16
2023-04-08T16:15:10.075Z,99940.09
2023-04-08T16:17:39.184Z,99941.91
2023-04-08T16:20:07.976Z,99943.00
2023-04-08T16:22:37.113Z,99942.88
2023-04-08T16:25:06.046Z,99944.69
2023-04-08T16:27:34.249Z,99941.88
2023-04-08T16:30:04.268Z,99941.59
2023-04-08T16:32:32.805Z,99943.69
2023-04-08T16:35:01.114Z,99945.13
2023-04-08T16:37:29.529Z,99944.41
2023-04-08T16:39:58.476Z,99945.22
2023-04-08T16:42:26.900Z,99947.22
2023-04-08T16:45:00.012Z,99948.59
2023-04-08T16:47:28.942Z,99945.13
2023-04-08T16:49:57.638Z,99948.47
2023-04-08T16:52:27.066Z,99942.00
2023-04-08T16:54:55.379Z,99947.19
2023-04-08T16:57:24.244Z,99954.19
2023-04-08T16:59:53.754Z,99951.19
2023-04-08T17:02:22.653Z,99957.09
2023-04-08T17:04:51.736Z,99955.13
2023-04-08T17:07:21.655Z,99964.91
2023-04-08T17:09:54.690Z,99969.66
2023-04-08T17:12:23.763Z,99978.97
2023-04-08T17:14:52.193Z,99973.22
2023-04-08T17:17:20.526Z,99985.88
2023-04-08T17:19:49.703Z,99981.38
2023-04-08T17:22:18.025Z,99988.50
2023-04-08T17:24:48.107Z,99990.59
2023-04-08T17:27:17.902Z,99990.84
2023-04-08T17:29:46.456Z,99992.94
2023-04-08T17:32:14.776Z,99989.16
2023-04-08T17:34:43.912Z,99994.59
2023-04-08T17:37:12.468Z,99992.34
2023-04-08T17:39:41.336Z,99992.84
2023-04-08T17:42:10.139Z,100002.53
2023-04-08T17:44:42.283Z,100003.25
2023-04-08T17:47:14.580Z,99997.34
2023-04-08T17:49:44.154Z,99997.34
2023-04-08T17:52:13.409Z,100000.97
2023-04-08T17:54:42.057Z,99998.44
2023-04-08T17:57:10.424Z,100001.25
2023-04-08T17:59:38.632Z,99994.34
2023-04-08T18:02:07.642Z,100000.53
2023-04-08T18:04:36.673Z,99992.56
2023-04-08T18:07:05.623Z,99999.94
2023-04-08T18:09:34.358Z,100005.84
2023-04-08T18:12:02.517Z,100006.69
2023-04-08T18:14:31.093Z,100010.69
2023-04-08T18:16:59.854Z,100008.53
2023-04-08T18:19:28.557Z,100012.44
2023-04-08T18:21:58.002Z,100017.06
2023-04-08T18:24:26.510Z,100028.81
2023-04-08T18:27:04.073Z,100026.41
2023-04-08T18:29:33.666Z,100031.06
2023-04-08T18:32:02.877Z,100032.91
2023-04-08T18:34:32.390Z,100034.97
2023-04-08T18:37:01.462Z,100038.84
2023-04-08T18:39:31.220Z,100047.53
2023-04-08T18:41:59.742Z,100043.56
2023-04-08T18:44:28.936Z,100042.50
2023-04-08T18:46:57.572Z,100044.47
2023-04-08T18:49:26.765Z,100048.06
2023-04-08T18:52:02.550Z,100044.34
2023-04-08T18:54:32.500Z,100048.22
2023-04-08T18:57:01.998Z,100049.66
2023-04-08T18:59:30.777Z,100044.47
2023-04-08T19:02:00.009Z,100050.13
2023-04-08T19:04:29.983Z,100042.38
2023-04-08T19:06:58.775Z,100039.25
2023-04-08T19:09:27.274Z,100046.16
2023-04-08T19:11:56.787Z,100036.50
2023-04-08T19:14:25.773Z,100044.56
2023-04-08T19:16:54.132Z,100041.31
2023-04-08T19:19:23.618Z,100035.41
2023-04-08T19:21:53.858Z,100038.31
2023-04-08T19:24:22.349Z,100042.31
2023-04-08T19:26:53.519Z,100042.56
2023-04-08T19:29:23.651Z,100043.28
2023-04-08T19:31:52.998Z,100037.97
2023-04-08T19:34:21.617Z,100046.06
2023-04-08T19:36:50.373Z,100046.31
2023-04-08T19:39:19.510Z,100047.50
2023-04-08T19:41:48.436Z,100053.28
2023-04-08T19:44:17.028Z,100047.50
2023-04-08T19:46:45.602Z,100057.25
2023-04-08T19:49:14.160Z,100049.56
2023-04-08T19:51:42.385Z,100054.59
2023-04-08T19:54:10.849Z,100054.00
2023-04-08T19:56:39.836Z,100052.34
2023-04-08T19:59:08.314Z,100047.97
2023-04-08T20:01:38.380Z,100049.06
2023-04-08T20:04:07.498Z,100048.09
2023-04-08T20:06:37.030Z,100047.88
2023-04-08T20:09:05.895Z,100043.44
2023-04-08T20:11:34.803Z,100044.00
2023-04-08T20:14:05.008Z,100036.53
2023-04-08T20:16:34.944Z,100043.53
2023-04-08T20:19:03.991Z,100034.00
2023-04-08T20:21:32.818Z,100039.53
2023-04-08T20:24:01.960Z,100041.22
2023-04-08T20:26:31.359Z,100047.84
2023-04-08T20:29:00.534Z,100039.88
2023-04-08T20:31:29.630Z,100041.72
2023-04-08T20:33:59.371Z,100035.31
2023-04-08T20:36:28.547Z,100036.91
2023-04-08T20:38:57.588Z,100045.06
2023-04-08T20:41:27.501Z,100044.25
2023-04-08T20:43:56.298Z,100041.34
2023-04-08T20:46:25.383Z,100048.69
2023-04-08T20:48:54.656Z,100050.75
2023-04-08T20:51:23.626Z,100049.56
2023-04-08T20:53:52.189Z,100046.78
2023-04-08T20:56:23.807Z,100048.13
2023-04-08T20:58:52.885Z,100054.03
2023-04-08T21:01:22.200Z,100064.00
2023-04-08T21:03:51.101Z,100058.84
2023-04-08T21:06:23.604Z,100052.31
2023-04-08T21:08:52.368Z,100058.47
2023-04-08T21:11:21.268Z,100051.97
2023-04-08T21:13:51.132Z,100052.78
2023-04-08T21:16:19.431Z,100050.88
2023-04-08T21:18:47.631Z,100056.56
2023-04-08T21:21:15.956Z,100056.56
2023-04-08T21:24:00.923Z,100057.88
2023-04-08T21:26:31.507Z,100051.47
2023-04-08T21:28:59.761Z,100044.34
2023-04-08T21:31:28.222Z,100047.25
2023-04-08T21:33:56.898Z,100048.56
2023-04-08T21:36:24.990Z,100044.00
2023-04-08T21:38:53.429Z,100050.28
2023-04-08T21:41:24.523Z,100043.28
2023-04-08T21:43:53.948Z,100046.16
2023-04-08T21:46:22.180Z,100048.47
2023-04-08T21:48:50.615Z,100044.22
2023-04-08T21:51:19.611Z,100039.03
2023-04-08T21:53:47.753Z,100044.97
2023-04-08T21:56:15.935Z,100045.94
2023-04-08T21:58:44.361Z,100051.72
2023-04-08T22:01:13.128Z,100044.72
2023-04-08T22:03:42.048Z,100051.38
2023-04-08T22:06:12.669Z,100048.09
2023-04-08T22:08:45.350Z,100042.31
2023-04-08T22:11:13.784Z,100043.53
2023-04-08T22:13:41.916Z,100036.03
2023-04-08T22:16:11.319Z,100037.72
2023-04-08T22:18:39.800Z,100026.91
2023-04-08T22:21:07.927Z,100028.94
2023-04-08T22:23:35.888Z,100029.06
2023-04-08T22:26:04.454Z,100019.53
2023-04-08T22:28:34.950Z,100031.34
2023-04-08T22:31:03.367Z,100029.16
2023-04-08T22:33:31.730Z,100034.38
2023-04-08T22:35:59.888Z,100028.56
2023-04-08T22:38:28.147Z,100035.22
2023-04-08T22:40:56.537Z,100028.94
2023-04-08T22:43:24.787Z,100030.84
2023-04-08T22:45:53.044Z,100038.06
2023-04-08T22:48:22.656Z,100034.72
2023-04-08T22:50:51.554Z,100034.81
2023-04-08T22:53:19.794Z,100036.81
2023-04-08T22:55:50.700Z,100038.97
2023-04-08T22:58:18.604Z,100039.59
2023-04-08T23:00:46.492Z,100041.25
2023-04-08T23:03:15.030Z,100043.47
2023-04-08T23:05:42.944Z,100038.38
2023-04-08T23:08:10.856Z,100043.66
2023-04-08T23:10:38.993Z,100035.59
2023-04-08T23:13:07.015Z,100035.00
2023-04-08T23:15:34.958Z,100041.25
2023-04-08T23:18:03.030Z,100042.34
2023-04-08T23:20:31.473Z,100038.84
2023-04-08T23:22:59.405Z,100043.16
2023-04-08T23:25:27.484Z,100040.28
2023-04-08T23:27:55.760Z,100033.78
2023-04-08T23:30:23.846Z,100032.81
2023-04-08T23:32:52.052Z,100032.81
2023-04-08T23:35:20.436Z,100028.25
2023-04-08T23:37:48.242Z,100026.34
2023-04-08T23:40:16.568Z,100031.84
2023-04-08T23:42:44.377Z,100029.31
2023-04-08T23:45:12.465Z,100029.66
2023-04-08T23:47:40.913Z,100026.78
2023-04-08T23:50:09.514Z,100026.28
2023-04-08T23:52:37.963Z,100030.13
2023-04-08T23:55:07.175Z,100028.56
2023-04-08T23:57:35.059Z,100017.13
